Abergorlech, United Kingdom
Current Conditions -  °F | °C
As of 3:50 PM on Monday 24 Nov 2014 (Local Time) from EGOP Reporting Station
Broken Clouds Broken Clouds  
Wind Chill: 44°   Ceiling: 3800
Heat Index: 46°   Visibility: 6mi
Dew Point: 41°   Wind: 5mph
Humidity: 81%   Direction: 130°SE
Pressure: 30.33"   Gusts: NA
Location:  51.88°N, 4.27°W
Report Text: EGOP 241550Z AUTO 13004KT 9999 // BKN038/// 08/05 Q1027
Loading
Personal Weather Stations






























Interactive Weather Map New forecast layout! Learn more

10-Day Weather Forecast

Advertisements
Track Severe Weather on mobile